Time;durP1;ratioP1;P1;durP2;ratioP2;P2;SDS_P1;SDS_P2;PMS_P1;PMS_P2;Temp;Humidity;BMP_temperature;BMP_pressure;BME280_temperature;BME280_humidity;BME280_pressure;Samples;Min_cycle;Max_cycle;Signal;HPM_P1;HPM_P2
2022/10/09 00:02:22;;;;;;;2.30;0.70;;;11.40;99.90;;;;;;5072076;28;20051;-71
2022/10/09 00:04:48;;;;;;;3.17;0.98;;;11.30;99.90;;;;;;5073667;28;20044;-74
2022/10/09 00:07:14;;;;;;;3.33;0.85;;;11.30;99.90;;;;;;5071830;28;20468;-75
2022/10/09 00:09:39;;;;;;;4.85;0.80;;;11.20;99.90;;;;;;5073829;28;20442;-73
2022/10/09 00:12:05;;;;;;;3.67;1.13;;;11.30;99.90;;;;;;5073815;28;20569;-71
2022/10/09 00:14:31;;;;;;;3.67;0.90;;;11.30;99.90;;;;;;5072501;28;20032;-71
2022/10/09 00:16:57;;;;;;;2.15;0.80;;;11.20;99.90;;;;;;5073611;28;20040;-71
2022/10/09 00:19:22;;;;;;;1.42;0.63;;;11.10;99.90;;;;;;5073584;28;20408;-75
2022/10/09 00:21:48;;;;;;;2.33;0.90;;;11.20;99.90;;;;;;5073773;28;20135;-71
2022/10/09 00:24:14;;;;;;;2.95;0.80;;;11.10;99.90;;;;;;5073738;28;20045;-75
2022/10/09 00:26:40;;;;;;;1.33;0.77;;;11.10;99.90;;;;;;5072436;28;20060;-71
2022/10/09 00:29:05;;;;;;;1.35;0.70;;;11.10;99.90;;;;;;5073938;28;20071;-75
2022/10/09 00:31:31;;;;;;;1.33;0.77;;;10.90;99.90;;;;;;5072388;28;20033;-71
2022/10/09 00:33:57;;;;;;;5.35;1.35;;;11.10;99.90;;;;;;5072321;28;20127;-74
2022/10/09 00:36:24;;;;;;;1.85;0.60;;;11.00;99.90;;;;;;5073677;28;20040;-76
2022/10/09 00:38:50;;;;;;;2.67;0.80;;;10.90;99.90;;;;;;5073708;28;20492;-74
2022/10/09 00:41:26;;;;;;;1.55;0.70;;;10.80;99.90;;;;;;5072640;28;20373;-71
2022/10/09 00:44:02;;;;;;;1.58;0.65;;;10.80;99.90;;;;;;5073474;28;20504;-74
2022/10/09 00:46:41;;;;;;;1.02;0.60;;;10.80;99.90;;;;;;5073687;28;20066;-73
2022/10/09 00:49:24;;;;;;;3.55;0.80;;;10.80;99.90;;;;;;5073388;28;20416;-73
2022/10/09 00:51:51;;;;;;;2.30;0.70;;;10.80;99.90;;;;;;5073516;28;20532;-73
2022/10/09 00:54:21;;;;;;;1.17;0.57;;;10.80;99.90;;;;;;5073097;28;20093;-71
2022/10/09 00:56:48;;;;;;;1.48;0.75;;;10.60;99.90;;;;;;5073235;28;20047;-72
2022/10/09 00:59:16;;;;;;;1.13;0.70;;;10.60;99.90;;;;;;5071855;28;20098;-74
2022/10/09 01:01:42;;;;;;;2.40;1.20;;;10.50;99.90;;;;;;5072890;28;20082;-71
2022/10/09 01:04:08;;;;;;;4.53;1.25;;;10.50;99.90;;;;;;5073272;28;20048;-72
2022/10/09 01:07:00;;;;;;;2.80;1.02;;;10.50;99.90;;;;;;5072025;28;20079;-71
2022/10/09 01:09:55;;;;;;;2.53;1.00;;;10.40;99.90;;;;;;5073548;28;20047;-73
2022/10/09 01:12:41;;;;;;;1.63;0.80;;;10.50;99.90;;;;;;5076667;28;20125;-72
2022/10/09 01:15:29;;;;;;;3.63;1.08;;;10.40;99.90;;;;;;5076000;28;20119;-72
2022/10/09 01:18:01;;;;;;;2.60;1.00;;;10.40;99.90;;;;;;5076786;28;20040;-72
2022/10/09 01:20:48;;;;;;;1.38;0.70;;;10.30;99.90;;;;;;5075405;28;20067;-72
2022/10/09 01:23:25;;;;;;;1.58;0.88;;;10.40;99.90;;;;;;5076752;28;20036;-73
2022/10/09 01:26:18;;;;;;;3.15;0.90;;;10.40;99.90;;;;;;5075316;28;20040;-71
2022/10/09 01:28:52;;;;;;;3.88;0.70;;;10.40;99.90;;;;;;5076659;28;20036;-72
2022/10/09 01:31:19;;;;;;;4.43;0.82;;;10.30;99.90;;;;;;5075525;28;20040;-71
2022/10/09 01:33:46;;;;;;;2.08;0.82;;;10.20;99.90;;;;;;5076579;28;20032;-74
2022/10/09 01:36:13;;;;;;;2.58;0.95;;;10.30;99.90;;;;;;5076425;28;20055;-74
2022/10/09 01:38:41;;;;;;;5.65;0.80;;;10.40;99.90;;;;;;5075284;28;20043;-73
2022/10/09 01:41:08;;;;;;;3.67;0.75;;;10.40;99.90;;;;;;5076157;28;20056;-72
2022/10/09 01:43:34;;;;;;;2.22;0.90;;;10.50;99.90;;;;;;5076225;28;20039;-71
2022/10/09 01:46:19;;;;;;;1.38;0.85;;;10.40;99.90;;;;;;5074953;28;20566;-71
2022/10/09 01:48:49;;;;;;;3.50;0.90;;;10.20;99.90;;;;;;5075806;28;20115;-74
2022/10/09 01:51:19;;;;;;;2.33;0.70;;;10.20;99.90;;;;;;5076555;28;20041;-74
2022/10/09 01:53:47;;;;;;;1.77;0.77;;;10.40;99.90;;;;;;5076147;28;20438;-72
2022/10/09 01:56:19;;;;;;;1.42;0.63;;;10.10;99.90;;;;;;5075964;28;20399;-72
2022/10/09 01:59:01;;;;;;;1.13;0.82;;;10.30;99.90;;;;;;5075944;28;20028;-72
2022/10/09 02:01:30;;;;;;;1.35;0.70;;;10.10;99.90;;;;;;5075496;28;20064;-73
2022/10/09 02:04:00;;;;;;;4.55;0.90;;;10.10;99.90;;;;;;5075015;28;20135;-72
2022/10/09 02:06:27;;;;;;;1.95;0.80;;;10.20;99.90;;;;;;5072774;28;20427;-74
2022/10/09 02:08:54;;;;;;;5.38;0.95;;;10.30;99.90;;;;;;5075246;28;20047;-74
2022/10/09 02:11:21;;;;;;;2.60;0.88;;;10.30;99.90;;;;;;5075786;28;20094;-71
2022/10/09 02:13:49;;;;;;;3.28;0.90;;;10.20;99.90;;;;;;5075241;28;20035;-75
2022/10/09 02:16:23;;;;;;;3.55;1.10;;;10.20;99.90;;;;;;5075602;28;20036;-72
2022/10/09 02:19:00;;;;;;;2.05;0.85;;;10.10;99.90;;;;;;5074403;28;20115;-74
2022/10/09 02:21:45;;;;;;;2.10;0.70;;;10.10;99.90;;;;;;5073384;28;20044;-75
2022/10/09 02:24:18;;;;;;;4.50;0.90;;;10.10;99.90;;;;;;5074728;28;20040;-72
2022/10/09 02:26:44;;;;;;;1.77;0.73;;;10.00;99.90;;;;;;5075633;28;20071;-74
2022/10/09 02:29:12;;;;;;;2.42;0.75;;;10.00;99.90;;;;;;5074269;28;20028;-75
2022/10/09 02:31:40;;;;;;;4.00;1.00;;;10.10;99.90;;;;;;5075299;28;20044;-71
2022/10/09 02:34:09;;;;;;;1.02;0.70;;;10.00;99.90;;;;;;5074103;28;20036;-71
2022/10/09 02:36:35;;;;;;;3.90;1.00;;;10.00;99.90;;;;;;5074637;28;20072;-75
2022/10/09 02:39:02;;;;;;;2.85;0.88;;;10.00;99.90;;;;;;5075273;28;20063;-75
2022/10/09 02:41:28;;;;;;;3.63;0.88;;;10.10;99.90;;;;;;5074735;28;20080;-72
2022/10/09 02:43:54;;;;;;;2.55;1.05;;;10.00;99.90;;;;;;5074039;28;20059;-75
2022/10/09 02:46:20;;;;;;;1.40;0.80;;;9.90;99.90;;;;;;5075278;28;20043;-75
2022/10/09 02:48:46;;;;;;;1.23;0.75;;;9.70;99.90;;;;;;5074105;28;20599;-74
2022/10/09 02:51:12;;;;;;;1.80;0.70;;;9.70;99.90;;;;;;5073718;28;20067;-74
2022/10/09 02:53:38;;;;;;;2.28;0.80;;;9.90;99.90;;;;;;5073162;28;20036;-73
2022/10/09 02:56:04;;;;;;;2.17;0.80;;;9.80;99.90;;;;;;5073193;28;20412;-72
2022/10/09 02:58:31;;;;;;;2.10;0.98;;;9.70;99.90;;;;;;5075059;28;20491;-74
2022/10/09 03:00:57;;;;;;;1.85;1.05;;;9.70;99.90;;;;;;5073658;28;20056;-72
2022/10/09 03:03:23;;;;;;;2.55;0.80;;;9.60;99.90;;;;;;5073810;28;20505;-75
2022/10/09 03:05:59;;;;;;;1.33;0.70;;;9.60;99.90;;;;;;5073309;28;20048;-71
2022/10/09 03:08:25;;;;;;;2.78;0.70;;;9.60;99.90;;;;;;5073562;28;20090;-72
2022/10/09 03:10:50;;;;;;;2.25;0.80;;;9.60;99.90;;;;;;5074988;28;20036;-72
2022/10/09 03:13:16;;;;;;;2.80;0.93;;;9.50;99.90;;;;;;5074637;28;20044;-75
2022/10/09 03:15:42;;;;;;;1.38;0.70;;;9.50;99.90;;;;;;5074698;28;20063;-75
2022/10/09 03:18:08;;;;;;;3.38;1.10;;;9.40;99.90;;;;;;5074429;28;20033;-75
2022/10/09 03:20:33;;;;;;;4.22;0.70;;;9.30;99.90;;;;;;5074403;28;20075;-72
2022/10/09 03:22:59;;;;;;;1.05;0.75;;;9.20;99.90;;;;;;5074357;28;20089;-74
2022/10/09 03:25:25;;;;;;;4.70;1.00;;;9.10;99.90;;;;;;5073317;28;20086;-73
2022/10/09 03:27:50;;;;;;;2.42;0.90;;;9.20;99.90;;;;;;5073006;28;20042;-73
2022/10/09 03:30:16;;;;;;;1.73;0.70;;;9.30;99.90;;;;;;5074273;28;20037;-75
2022/10/09 03:32:42;;;;;;;1.67;0.80;;;9.30;99.90;;;;;;5068544;28;20032;-72
2022/10/09 03:35:08;;;;;;;3.47;0.90;;;9.30;99.90;;;;;;5051138;28;20036;-72
2022/10/09 03:37:34;;;;;;;2.33;0.90;;;9.50;99.90;;;;;;5051465;28;20067;-72
2022/10/09 03:39:59;;;;;;;3.75;0.90;;;9.60;99.90;;;;;;5053131;28;20037;-72
2022/10/09 03:42:25;;;;;;;2.38;1.17;;;9.70;99.90;;;;;;5054214;28;20049;-75
2022/10/09 03:44:51;;;;;;;1.55;0.82;;;9.70;99.90;;;;;;5052687;28;20500;-74
2022/10/09 03:47:17;;;;;;;3.10;1.00;;;9.60;99.90;;;;;;5052577;28;20049;-73
2022/10/09 03:49:43;;;;;;;1.10;0.80;;;9.70;99.90;;;;;;5054143;28;20115;-74
2022/10/09 03:52:08;;;;;;;5.03;0.95;;;9.70;99.90;;;;;;5053866;28;20036;-74
2022/10/09 03:54:34;;;;;;;1.70;0.82;;;9.70;99.90;;;;;;5052568;28;20036;-74
2022/10/09 03:57:00;;;;;;;2.90;0.90;;;9.70;99.90;;;;;;5052540;28;20047;-73
2022/10/09 03:59:26;;;;;;;3.33;0.82;;;9.70;99.90;;;;;;5053973;28;20048;-74
2022/10/09 04:01:52;;;;;;;6.75;1.65;;;9.60;99.90;;;;;;5053860;28;20045;-75
2022/10/09 04:04:18;;;;;;;2.20;0.88;;;9.60;99.90;;;;;;5052465;28;20033;-72
2022/10/09 04:06:43;;;;;;;1.25;0.73;;;9.50;99.90;;;;;;5053932;28;20500;-75
2022/10/09 04:09:09;;;;;;;1.55;0.85;;;9.50;99.90;;;;;;5052897;28;20435;-72
2022/10/09 04:11:35;;;;;;;2.45;0.88;;;9.50;99.90;;;;;;5052708;28;20396;-75
2022/10/09 04:14:01;;;;;;;5.47;0.95;;;9.40;99.90;;;;;;5053456;28;20083;-73
2022/10/09 04:16:27;;;;;;;3.38;0.85;;;9.30;99.90;;;;;;5052514;28;20090;-75
2022/10/09 04:18:53;;;;;;;3.55;1.00;;;9.30;99.90;;;;;;5052443;28;20037;-72
2022/10/09 04:21:18;;;;;;;3.67;1.02;;;9.20;99.90;;;;;;5053721;28;20049;-75
2022/10/09 04:23:44;;;;;;;1.55;1.00;;;9.20;99.90;;;;;;5053639;28;20033;-73
2022/10/09 04:26:11;;;;;;;3.25;1.02;;;9.20;99.90;;;;;;5053558;28;20045;-73
2022/10/09 04:28:37;;;;;;;2.58;0.70;;;9.20;99.90;;;;;;5052665;28;20114;-72
2022/10/09 04:31:04;;;;;;;5.25;1.13;;;9.20;99.90;;;;;;5053435;28;20520;-75
2022/10/09 04:33:30;;;;;;;2.10;0.60;;;9.20;99.90;;;;;;5053458;28;20041;-74
2022/10/09 04:35:56;;;;;;;3.03;1.00;;;9.10;99.90;;;;;;5053481;28;20048;-74
2022/10/09 04:38:23;;;;;;;3.33;1.30;;;9.10;99.90;;;;;;5053557;28;20037;-75
2022/10/09 04:40:59;;;;;;;4.82;1.20;;;9.20;99.90;;;;;;5053377;28;20053;-73
2022/10/09 04:43:25;;;;;;;1.85;1.00;;;9.20;99.90;;;;;;5053261;28;20048;-71
2022/10/09 04:45:51;;;;;;;3.00;1.00;;;9.10;99.90;;;;;;5056232;28;20472;-75
2022/10/09 04:48:17;;;;;;;2.47;0.90;;;9.10;99.90;;;;;;5057392;28;20060;-71
2022/10/09 04:50:42;;;;;;;3.38;1.00;;;9.10;99.90;;;;;;5057578;28;20031;-75
2022/10/09 04:53:08;;;;;;;3.30;0.90;;;9.10;99.90;;;;;;5055973;28;20102;-71
2022/10/09 04:55:42;;;;;;;4.57;1.23;;;9.00;99.90;;;;;;5055753;28;20029;-74
2022/10/09 04:58:09;;;;;;;4.20;0.90;;;8.90;99.90;;;;;;5055550;28;20573;-74
2022/10/09 05:00:43;;;;;;;4.47;1.10;;;8.90;99.90;;;;;;5057030;28;20144;-74
2022/10/09 05:03:09;;;;;;;2.15;1.00;;;9.00;99.90;;;;;;5072350;28;20035;-74
2022/10/09 05:05:35;;;;;;;4.25;1.00;;;9.00;99.90;;;;;;5077079;28;20443;-73
2022/10/09 05:08:01;;;;;;;3.42;0.90;;;8.90;99.90;;;;;;5077059;28;20036;-73
2022/10/09 05:10:27;;;;;;;3.13;1.33;;;8.90;99.90;;;;;;5075557;28;20487;-74
2022/10/09 05:12:52;;;;;;;2.70;1.23;;;8.80;99.90;;;;;;5076859;28;20161;-74
2022/10/09 05:15:18;;;;;;;3.72;1.20;;;8.80;99.90;;;;;;5075925;28;20040;-74
2022/10/09 05:17:44;;;;;;;3.00;1.17;;;8.70;99.90;;;;;;5076780;28;20041;-74
2022/10/09 05:20:10;;;;;;;2.58;1.45;;;8.70;99.90;;;;;;5077000;28;20134;-74
2022/10/09 05:22:36;;;;;;;3.95;1.38;;;8.60;99.90;;;;;;5075523;28;20033;-73
2022/10/09 05:25:02;;;;;;;1.90;1.10;;;8.60;99.90;;;;;;5076714;28;20048;-73
2022/10/09 05:27:28;;;;;;;5.88;1.70;;;8.60;99.90;;;;;;5076639;28;20029;-73
2022/10/09 05:29:54;;;;;;;3.08;1.17;;;8.60;99.90;;;;;;5076555;28;20033;-74
2022/10/09 05:32:20;;;;;;;3.00;1.40;;;8.60;99.90;;;;;;5074710;28;20130;-74
2022/10/09 05:34:46;;;;;;;3.25;1.40;;;8.60;99.90;;;;;;5076366;28;20093;-73
2022/10/09 05:37:12;;;;;;;3.05;1.50;;;8.60;99.90;;;;;;5075018;28;20052;-73
2022/10/09 05:39:38;;;;;;;5.45;1.60;;;8.60;99.90;;;;;;5076326;28;20029;-74
2022/10/09 05:42:04;;;;;;;4.22;1.63;;;8.70;99.90;;;;;;5076343;28;20120;-74
2022/10/09 05:44:30;;;;;;;3.70;1.52;;;8.80;99.90;;;;;;5076524;28;20032;-73
2022/10/09 05:46:56;;;;;;;4.10;1.65;;;8.80;99.90;;;;;;5076400;28;20032;-74
2022/10/09 05:49:21;;;;;;;5.03;1.73;;;8.80;99.90;;;;;;5076162;28;20045;-73
2022/10/09 05:51:48;;;;;;;8.32;1.73;;;8.80;99.90;;;;;;5075988;28;20553;-73
2022/10/09 05:54:17;;;;;;;2.78;1.17;;;8.70;99.90;;;;;;5074736;28;20041;-73
2022/10/09 05:56:44;;;;;;;4.80;1.67;;;8.80;99.90;;;;;;5074699;28;20048;-74
2022/10/09 05:59:17;;;;;;;5.32;1.10;;;8.90;99.90;;;;;;5076172;28;20119;-74
2022/10/09 06:01:45;;;;;;;2.42;1.40;;;8.90;99.90;;;;;;5075839;28;20083;-74
2022/10/09 06:04:17;;;;;;;3.30;1.30;;;8.90;99.90;;;;;;5075062;28;20455;-74
2022/10/09 06:06:46;;;;;;;4.97;1.50;;;8.90;99.90;;;;;;5075944;28;20496;-74
2022/10/09 06:09:13;;;;;;;6.72;1.63;;;8.90;99.90;;;;;;5076002;28;20484;-74
2022/10/09 06:11:39;;;;;;;3.65;2.00;;;8.90;99.90;;;;;;5074359;28;20583;-73
2022/10/09 06:14:07;;;;;;;8.07;1.98;;;8.80;99.90;;;;;;5074902;28;20119;-74
2022/10/09 06:16:36;;;;;;;4.55;1.80;;;8.80;99.90;;;;;;5074776;28;20036;-74
2022/10/09 06:19:02;;;;;;;2.22;1.45;;;8.80;99.90;;;;;;5074578;28;20048;-74
2022/10/09 06:21:28;;;;;;;4.88;1.48;;;8.90;99.90;;;;;;5075430;28;20135;-73
2022/10/09 06:23:59;;;;;;;3.75;1.60;;;8.90;99.90;;;;;;5075963;28;20133;-74
2022/10/09 06:26:29;;;;;;;3.22;1.60;;;9.00;99.90;;;;;;5074334;28;20062;-74
2022/10/09 06:28:56;;;;;;;6.15;1.80;;;9.10;99.90;;;;;;5074327;28;20133;-74
2022/10/09 06:31:25;;;;;;;3.70;1.50;;;9.30;99.90;;;;;;5075605;28;20036;-73
2022/10/09 06:33:52;;;;;;;4.47;1.77;;;9.50;99.90;;;;;;5074258;28;20032;-73
2022/10/09 06:36:20;;;;;;;3.20;1.58;;;9.50;99.90;;;;;;5075292;28;20059;-74
2022/10/09 06:38:46;;;;;;;2.95;1.80;;;9.30;99.90;;;;;;5075255;28;20488;-73
2022/10/09 06:41:15;;;;;;;6.53;2.05;;;9.20;99.90;;;;;;5073855;28;20127;-73
2022/10/09 06:43:41;;;;;;;5.50;1.63;;;9.10;99.90;;;;;;5073523;28;20060;-74
2022/10/09 06:46:10;;;;;;;5.38;1.88;;;9.10;99.90;;;;;;5073617;28;20044;-73
2022/10/09 06:48:38;;;;;;;10.75;1.60;;;9.50;99.90;;;;;;5073753;28;20029;-73
2022/10/09 06:51:06;;;;;;;6.22;1.63;;;9.70;99.90;;;;;;5074050;28;20118;-74
2022/10/09 06:53:40;;;;;;;3.80;1.85;;;9.70;99.90;;;;;;5073840;28;20045;-73
2022/10/09 06:56:10;;;;;;;3.90;1.30;;;10.00;99.90;;;;;;5073706;28;20083;-73
2022/10/09 06:58:37;;;;;;;4.93;1.88;;;10.20;99.90;;;;;;5073677;28;20028;-73
2022/10/09 07:01:10;;;;;;;3.08;1.15;;;10.20;99.90;;;;;;5074699;28;20059;-74
2022/10/09 07:03:37;;;;;;;3.58;1.50;;;10.10;99.90;;;;;;5074673;28;20032;-73
2022/10/09 07:06:08;;;;;;;5.35;1.52;;;10.20;99.90;;;;;;5073439;28;20121;-73
2022/10/09 07:08:34;;;;;;;4.80;1.30;;;10.40;99.90;;;;;;5074452;28;20033;-73
2022/10/09 07:11:06;;;;;;;2.88;1.40;;;10.50;99.90;;;;;;5073501;28;20040;-73
2022/10/09 07:13:32;;;;;;;5.13;2.15;;;10.70;99.90;;;;;;5074558;28;20035;-73
2022/10/09 07:15:58;;;;;;;4.03;1.73;;;11.30;99.90;;;;;;5074588;28;20040;-73
2022/10/09 07:18:23;;;;;;;4.88;1.80;;;11.00;99.90;;;;;;5074577;28;20082;-73
2022/10/09 07:20:49;;;;;;;5.22;1.70;;;11.00;99.90;;;;;;5073011;28;20398;-73
2022/10/09 07:23:15;;;;;;;3.80;1.42;;;10.90;99.90;;;;;;5073563;28;20621;-73
2022/10/09 07:25:41;;;;;;;4.30;1.95;;;11.40;99.90;;;;;;5074513;28;20511;-73
2022/10/09 07:28:06;;;;;;;6.55;2.88;;;11.90;99.90;;;;;;5074304;28;20028;-73
2022/10/09 07:30:36;;;;;;;9.00;3.25;;;11.90;99.90;;;;;;5074554;28;20039;-73
2022/10/09 07:33:02;;;;;;;2.70;1.83;;;;;;;;;;5073002;28;20036;-73
2022/10/09 07:35:29;;;;;;;4.10;1.98;;;;;;;;;;5074219;28;20101;-73
2022/10/09 07:37:55;;;;;;;5.85;1.60;;;;;;;;;;5068240;28;20044;-73
2022/10/09 07:40:21;;;;;;;6.82;1.70;;;12.60;99.90;;;;;;5053180;28;20102;-73
2022/10/09 07:42:47;;;;;;;6.50;1.75;;;;;;;;;;5051886;28;20049;-73
2022/10/09 07:45:12;;;;;;;3.38;1.63;;;13.00;99.90;;;;;;5052041;28;20045;-73
2022/10/09 07:47:39;;;;;;;3.58;1.80;;;13.20;99.90;;;;;;5052258;28;20044;-73
2022/10/09 07:50:05;;;;;;;11.75;1.65;;;13.40;99.90;;;;;;5050813;28;20037;-73
2022/10/09 07:52:31;;;;;;;4.85;2.13;;;13.50;99.90;;;;;;5051811;28;20128;-72
2022/10/09 07:54:56;;;;;;;5.22;1.55;;;13.60;99.90;;;;;;5053209;28;20143;-72
2022/10/09 07:57:22;;;;;;;11.18;2.10;;;13.80;99.90;;;;;;5051605;28;20125;-73
2022/10/09 07:59:48;;;;;;;6.03;3.08;;;13.80;99.90;;;;;;5050985;28;20108;-72
2022/10/09 08:02:13;;;;;;;4.43;2.00;;;14.00;99.90;;;;;;5050575;28;20052;-72
2022/10/09 08:04:39;;;;;;;5.85;3.53;;;14.10;99.90;;;;;;5051256;28;20036;-72
2022/10/09 08:07:05;;;;;;;4.45;1.52;;;13.90;99.90;;;;;;5051375;28;20048;-73
2022/10/09 08:09:31;;;;;;;4.20;1.80;;;13.70;99.90;;;;;;5051228;28;20025;-72
2022/10/09 08:11:57;;;;;;;6.53;1.60;;;14.10;99.90;;;;;;5051255;28;20114;-72
2022/10/09 08:14:25;;;;;;;2.50;1.58;;;14.10;99.90;;;;;;5051514;28;20051;-74
2022/10/09 08:16:51;;;;;;;5.10;1.42;;;13.80;99.90;;;;;;5051244;28;20049;-72
2022/10/09 08:19:17;;;;;;;7.05;1.50;;;13.90;99.90;;;;;;5056006;28;20033;-72
2022/10/09 08:21:43;;;;;;;6.40;1.40;;;14.20;99.90;;;;;;5072378;28;20052;-75
2022/10/09 08:24:10;;;;;;;3.15;1.42;;;;;;;;;;5074727;28;20040;-74
2022/10/09 08:26:36;;;;;;;2.65;1.27;;;14.00;99.90;;;;;;5074539;28;20091;-75
2022/10/09 08:29:04;;;;;;;2.13;1.27;;;14.30;99.90;;;;;;5075187;28;20068;-73
2022/10/09 08:31:30;;;;;;;2.90;1.50;;;14.40;99.90;;;;;;5074876;28;20075;-74
2022/10/09 08:33:58;;;;;;;3.90;1.35;;;14.60;99.90;;;;;;5074336;28;20123;-72
2022/10/09 08:36:24;;;;;;;2.55;1.15;;;14.60;99.90;;;;;;5072948;28;20040;-76
2022/10/09 08:38:51;;;;;;;4.82;1.40;;;;;;;;;;5071412;28;20036;-73
2022/10/09 08:41:32;;;;;;;8.35;1.75;;;15.00;99.90;;;;;;5075053;28;20048;-75
2022/10/09 08:44:00;;;;;;;;;;;14.80;99.90;;;;;;5075303;28;20036;-75
2022/10/09 08:46:39;;;;;;;5.13;1.10;;;15.00;99.90;;;;;;5075189;28;19913;-76
2022/10/09 08:49:05;;;;;;;2.88;1.17;;;15.10;99.90;;;;;;5075087;28;20051;-75
2022/10/09 08:51:36;;;;;;;4.93;1.60;;;15.30;99.90;;;;;;5074982;28;20037;-75
2022/10/09 08:54:36;;;;;;;3.58;1.40;;;15.30;99.90;;;;;;5074694;28;20524;-74
2022/10/09 08:57:08;;;;;;;1.48;0.88;;;15.80;99.90;;;;;;5070171;28;20032;-74
2022/10/09 08:59:35;;;;;;;2.97;1.25;;;15.70;99.90;;;;;;5072510;28;20506;-73
2022/10/09 09:02:26;;;;;;;3.38;1.20;;;15.60;99.90;;;;;;5074549;28;20048;-74
2022/10/09 09:05:22;;;;;;;8.02;1.73;;;15.70;99.90;;;;;;5073547;28;20089;-73
2022/10/09 09:08:07;;;;;;;4.80;1.48;;;15.90;99.90;;;;;;5066237;28;20041;-74
2022/10/09 09:10:45;;;;;;;5.60;1.10;;;15.90;99.90;;;;;;5075163;28;20059;-74
2022/10/09 09:13:33;;;;;;;3.75;1.48;;;16.10;99.90;;;;;;5074564;28;20366;-74
2022/10/09 09:16:22;;;;;;;3.75;1.17;;;16.20;99.90;;;;;;5075348;28;20376;-73
2022/10/09 09:19:06;;;;;;;1.65;0.90;;;16.50;99.90;;;;;;5073072;28;20492;-74
2022/10/09 09:21:46;;;;;;;1.30;1.02;;;16.50;99.90;;;;;;5075008;28;20062;-76
2022/10/09 09:24:18;;;;;;;2.90;0.93;;;16.20;99.90;;;;;;5074566;28;20078;-72
2022/10/09 09:26:50;;;;;;;3.00;0.90;;;16.20;99.90;;;;;;5074382;28;20135;-78
2022/10/09 09:29:21;;;;;;;9.50;1.10;;;16.50;99.90;;;;;;5074930;28;20028;-73
2022/10/09 09:31:51;;;;;;;1.58;0.90;;;16.30;99.90;;;;;;5074632;28;20048;-76
2022/10/09 09:34:21;;;;;;;4.13;1.38;;;16.50;99.90;;;;;;5074412;28;20056;-73
2022/10/09 09:36:57;;;;;;;1.33;0.90;;;16.00;99.90;;;;;;5071862;28;20120;-73
2022/10/09 09:39:27;;;;;;;6.07;1.50;;;15.70;99.90;;;;;;5072796;28;20045;-74
2022/10/09 09:41:58;;;;;;;1.90;1.20;;;15.70;99.90;;;;;;5073542;28;20056;-73
2022/10/09 09:44:26;;;;;;;1.35;0.77;;;16.30;99.90;;;;;;5073771;28;20036;-73
2022/10/09 09:46:52;;;;;;;4.35;1.10;;;16.80;99.90;;;;;;5071458;28;20123;-73
2022/10/09 09:49:26;;;;;;;3.88;1.13;;;16.90;99.90;;;;;;5072298;28;20238;-73
2022/10/09 09:51:54;;;;;;;8.18;1.20;;;17.00;99.90;;;;;;5068108;28;20101;-73
2022/10/09 09:54:28;;;;;;;2.95;1.02;;;17.10;99.90;;;;;;5071139;28;20032;-73
2022/10/09 09:56:57;;;;;;;2.97;1.08;;;17.00;99.90;;;;;;5069958;28;20139;-73
2022/10/09 09:59:36;;;;;;;1.20;0.93;;;17.20;99.90;;;;;;5069808;28;20067;-73
2022/10/09 10:02:05;;;;;;;4.05;1.40;;;17.40;99.90;;;;;;5071434;28;20408;-73
2022/10/09 10:04:31;;;;;;;5.18;1.42;;;17.70;99.90;;;;;;5073814;28;20070;-73
2022/10/09 10:06:57;;;;;;;5.40;1.27;;;17.50;99.90;;;;;;5070662;28;20637;-72
2022/10/09 10:09:23;;;;;;;1.95;1.10;;;17.20;99.90;;;;;;5072062;28;20107;-73
2022/10/09 10:12:02;;;;;;;3.38;1.15;;;17.40;99.90;;;;;;5071004;28;20028;-73
2022/10/09 10:14:29;;;;;;;3.80;1.10;;;17.80;99.90;;;;;;5071198;28;20403;-73
2022/10/09 10:16:57;;;;;;;2.30;1.10;;;17.90;99.90;;;;;;5071106;28;20040;-73
2022/10/09 10:19:26;;;;;;;9.18;1.17;;;18.00;99.90;;;;;;5070559;28;20040;-73
2022/10/09 10:21:59;;;;;;;2.75;1.02;;;17.80;99.90;;;;;;5071000;28;20101;-73
2022/10/09 10:24:52;;;;;;;2.42;0.95;;;17.60;99.90;;;;;;5072765;28;20064;-75
2022/10/09 10:27:38;;;;;;;4.43;1.10;;;17.90;99.90;;;;;;5069711;28;20036;-73
2022/10/09 10:30:08;;;;;;;2.95;1.10;;;18.00;99.90;;;;;;5072369;28;20514;-73
2022/10/09 10:32:48;;;;;;;2.63;0.90;;;18.00;99.90;;;;;;5070057;28;20051;-74
2022/10/09 10:35:30;;;;;;;2.40;1.05;;;18.00;99.90;;;;;;5071270;28;20052;-74
2022/10/09 10:38:13;;;;;;;3.28;0.90;;;18.20;99.90;;;;;;5071910;28;20416;-73
2022/10/09 10:40:48;;;;;;;3.08;1.60;;;18.30;99.90;;;;;;5072565;28;20044;-73
2022/10/09 10:43:51;;;;;;;1.58;0.95;;;18.20;99.90;;;;;;5067791;28;20032;-74
2022/10/09 10:46:23;;;;;;;1.98;1.00;;;18.00;99.90;;;;;;5037898;28;20048;-76
2022/10/09 10:48:50;;;;;;;3.05;1.00;;;17.90;99.90;;;;;;5070299;28;20039;-76
2022/10/09 10:51:48;;;;;;;3.75;0.90;;;17.90;99.90;;;;;;5070686;28;20048;-75
2022/10/09 10:54:32;;;;;;;4.22;1.00;;;18.20;99.90;;;;;;5072506;28;20033;-74
2022/10/09 10:57:01;;;;;;;2.33;1.10;;;18.10;99.90;;;;;;5069962;28;20406;-74
2022/10/09 10:59:40;;;;;;;1.92;1.00;;;18.20;99.90;;;;;;5070118;28;20037;-75
2022/10/09 11:02:08;;;;;;;2.92;0.88;;;18.10;99.90;;;;;;5070180;28;20456;-75
2022/10/09 11:04:37;;;;;;;5.75;1.15;;;18.10;99.90;;;;;;5069839;28;20127;-73
2022/10/09 11:07:28;;;;;;;4.35;1.15;;;18.00;99.90;;;;;;5069868;28;20047;-73
2022/10/09 11:09:56;;;;;;;;;;;17.90;99.90;;;;;;5054605;28;20128;-74
2022/10/09 11:12:46;;;;;;;5.13;1.25;;;17.90;99.90;;;;;;5058641;28;20322;-73
2022/10/09 11:15:29;;;;;;;1.45;1.05;;;17.80;99.90;;;;;;5072372;28;20075;-72
2022/10/09 11:18:02;;;;;;;3.10;1.50;;;17.50;99.90;;;;;;5070386;28;20039;-74
2022/10/09 11:21:03;;;;;;;4.75;1.42;;;17.40;99.90;;;;;;5069369;28;20654;-76
2022/10/09 11:23:43;;;;;;;6.65;1.85;;;17.40;99.90;;;;;;5050933;28;20051;-71
2022/10/09 11:26:29;;;;;;;6.28;2.10;;;17.30;99.90;;;;;;5051919;28;20037;-73
2022/10/09 11:29:03;;;;;;;7.18;2.15;;;17.00;99.90;;;;;;5051783;28;20051;-75
2022/10/09 11:31:38;;;;;;;3.58;2.17;;;17.40;99.90;;;;;;5065801;28;20110;-77
2022/10/09 11:34:27;;;;;;;5.13;2.35;;;17.70;99.90;;;;;;5070865;28;20064;-70
2022/10/09 11:36:53;;;;;;;3.13;2.08;;;17.50;99.90;;;;;;5069464;28;20083;-74
2022/10/09 11:39:26;;;;;;;5.20;1.83;;;17.50;99.90;;;;;;5071848;28;20173;-72
2022/10/09 11:41:54;;;;;;;10.27;2.00;;;17.30;99.90;;;;;;5070966;28;20546;-73
2022/10/09 11:44:41;;;;;;;3.10;1.77;;;17.50;99.90;;;;;;5073048;28;20039;-73
2022/10/09 11:47:33;;;;;;;4.85;2.67;;;17.90;99.90;;;;;;5071897;28;20488;-70
2022/10/09 11:50:12;;;;;;;3.53;1.75;;;17.80;99.90;;;;;;5072065;28;20040;-72
2022/10/09 11:52:44;;;;;;;6.22;1.75;;;17.50;99.90;;;;;;5070385;28;20466;-73
2022/10/09 11:55:23;;;;;;;2.88;1.45;;;17.80;99.90;;;;;;5070856;28;20047;-71
2022/10/09 11:57:49;;;;;;;3.85;1.75;;;18.10;99.90;;;;;;5071231;28;20392;-69
2022/10/09 12:00:31;;;;;;;7.28;2.50;;;18.30;99.90;;;;;;5070335;28;20131;-70
2022/10/09 12:03:01;;;;;;;4.28;1.92;;;18.00;99.90;;;;;;5068653;28;20562;-76
2022/10/09 12:05:48;;;;;;;4.00;1.92;;;18.00;99.90;;;;;;5069823;28;20036;-71
2022/10/09 12:08:17;;;;;;;2.95;1.70;;;17.60;99.90;;;;;;5068954;28;20040;-74
2022/10/09 12:10:55;;;;;;;9.43;2.40;;;17.30;99.90;;;;;;5066874;28;20467;-70
2022/10/09 12:13:40;;;;;;;4.78;1.92;;;17.60;99.90;;;;;;5070527;28;20052;-70
2022/10/09 12:16:09;;;;;;;9.93;2.08;;;17.40;99.90;;;;;;5069668;28;20045;-70
2022/10/09 12:18:44;;;;;;;2.83;1.80;;;17.40;99.90;;;;;;5066907;28;20365;-71
2022/10/09 12:21:31;;;;;;;3.35;1.70;;;17.50;99.90;;;;;;5070942;28;20060;-76
2022/10/09 12:23:57;;;;;;;3.90;2.53;;;17.40;99.90;;;;;;5066753;28;20048;-70
2022/10/09 12:26:24;;;;;;;6.00;2.58;;;17.60;99.90;;;;;;5071133;28;20060;-70
2022/10/09 12:28:54;;;;;;;6.47;2.35;;;17.50;99.90;;;;;;5070485;28;20048;-70
2022/10/09 12:31:35;;;;;;;4.15;2.70;;;17.30;99.90;;;;;;5068763;28;20051;-70
2022/10/09 12:34:25;;;;;;;5.07;2.15;;;17.40;99.90;;;;;;5069117;28;20041;-70
2022/10/09 12:37:01;;;;;;;5.22;3.42;;;17.50;99.90;;;;;;5070213;28;20101;-70
2022/10/09 12:39:27;;;;;;;5.63;2.35;;;17.50;99.90;;;;;;5070261;28;20044;-71
2022/10/09 12:41:57;;;;;;;5.60;2.05;;;17.50;99.90;;;;;;5068841;28;20055;-70
2022/10/09 12:44:31;;;;;;;3.60;2.50;;;17.50;99.90;;;;;;5070874;28;20068;-70
2022/10/09 12:47:07;;;;;;;7.68;2.53;;;17.60;99.90;;;;;;5063505;28;20056;-71
2022/10/09 12:49:33;;;;;;;8.18;2.28;;;17.90;99.90;;;;;;5068922;28;20365;-79
2022/10/09 12:52:00;;;;;;;6.47;2.17;;;18.10;99.90;;;;;;5070435;28;20028;-81
2022/10/09 12:54:28;;;;;;;6.35;2.95;;;18.20;99.90;;;;;;5070910;28;20044;-70
2022/10/09 12:56:56;;;;;;;7.63;2.60;;;17.80;99.90;;;;;;5071034;28;20214;-70
2022/10/09 12:59:25;;;;;;;5.53;2.88;;;17.60;99.90;;;;;;5072083;28;20131;-72
2022/10/09 13:01:57;;;;;;;14.35;3.25;;;17.60;99.90;;;;;;5069633;28;20083;-80
2022/10/09 13:04:27;;;;;;;4.85;2.33;;;17.50;99.90;;;;;;5073217;28;20056;-74
2022/10/09 13:06:53;;;;;;;6.57;2.40;;;17.80;99.90;;;;;;5078272;28;20094;-70
2022/10/09 13:09:24;;;;;;;11.40;2.50;;;17.80;99.90;;;;;;5073474;28;20062;-70
2022/10/09 13:11:57;;;;;;;6.35;2.33;;;17.60;99.90;;;;;;5078493;28;20048;-72